createdAt,value
2022-11-24T00:01:30.696Z,90.25
2022-11-24T00:04:06.436Z,90.35
2022-11-24T00:06:36.081Z,90.37
2022-11-24T00:09:05.590Z,90.49
2022-11-24T00:11:36.329Z,90.40
2022-11-24T00:14:06.414Z,90.21
2022-11-24T00:16:37.419Z,90.44
2022-11-24T00:19:13.613Z,90.55
2022-11-24T00:21:45.600Z,90.64
2022-11-24T00:24:14.145Z,90.82
2022-11-24T00:26:43.531Z,90.88
2022-11-24T00:29:12.815Z,90.99
2022-11-24T00:31:42.357Z,91.18
2022-11-24T00:34:13.166Z,91.41
2022-11-24T00:36:42.653Z,91.34
2022-11-24T00:39:15.530Z,91.42
2022-11-24T00:41:44.585Z,91.48
2022-11-24T00:44:13.239Z,91.53
2022-11-24T00:46:41.958Z,91.70
2022-11-24T00:49:10.552Z,91.60
2022-11-24T00:51:39.275Z,91.54
2022-11-24T00:54:07.931Z,92.04
2022-11-24T00:56:36.421Z,91.65
2022-11-24T00:59:04.936Z,91.73
2022-11-24T01:01:33.523Z,91.91
2022-11-24T01:04:02.608Z,91.54
2022-11-24T01:06:32.877Z,91.69
2022-11-24T01:09:02.156Z,91.79
2022-11-24T01:11:53.464Z,91.84
2022-11-24T01:14:25.061Z,92.04
2022-11-24T01:16:54.455Z,91.72
2022-11-24T01:19:24.004Z,91.89
2022-11-24T01:21:52.666Z,91.91
2022-11-24T01:24:21.297Z,91.78
2022-11-24T01:26:49.826Z,91.89
2022-11-24T01:29:18.244Z,91.91
2022-11-24T01:31:46.675Z,92.07
2022-11-24T01:34:15.150Z,91.59
2022-11-24T01:36:43.808Z,91.74
2022-11-24T01:39:12.500Z,91.69
2022-11-24T01:41:40.972Z,91.59
2022-11-24T01:44:31.184Z,91.36
2022-11-24T01:47:05.741Z,91.19
2022-11-24T01:49:39.779Z,91.55
2022-11-24T01:52:41.283Z,91.77
2022-11-24T01:55:16.465Z,91.71
2022-11-24T01:57:56.996Z,91.70
2022-11-24T02:00:25.831Z,91.54
2022-11-24T02:02:54.449Z,91.37
2022-11-24T02:05:29.084Z,91.61
2022-11-24T02:08:00.962Z,91.76
2022-11-24T02:10:30.100Z,91.84
2022-11-24T02:13:00.960Z,91.64
2022-11-24T02:15:29.979Z,91.19
2022-11-24T02:17:59.486Z,91.22
2022-11-24T02:20:27.863Z,91.21
2022-11-24T02:23:20.962Z,91.35
2022-11-24T02:26:24.506Z,91.29
2022-11-24T02:28:53.187Z,91.65
2022-11-24T02:31:21.909Z,91.30
2022-11-24T02:33:50.759Z,90.96
2022-11-24T02:36:19.235Z,91.61
2022-11-24T02:38:47.626Z,91.33
2022-11-24T02:41:22.703Z,91.64
2022-11-24T02:44:00.604Z,91.42
2022-11-24T02:46:29.045Z,91.03
2022-11-24T02:48:57.526Z,91.21
2022-11-24T02:51:25.871Z,91.30
2022-11-24T02:53:54.171Z,91.17
2022-11-24T02:56:22.608Z,90.88
2022-11-24T02:58:50.865Z,90.56
2022-11-24T03:01:19.272Z,90.48
2022-11-24T03:03:47.676Z,90.46
2022-11-24T03:06:15.964Z,90.21
2022-11-24T03:08:44.373Z,90.62
2022-11-24T03:11:12.800Z,90.61
2022-11-24T03:13:41.176Z,91.20
2022-11-24T03:16:10.783Z,90.73
2022-11-24T03:18:39.392Z,90.81
2022-11-24T03:21:07.687Z,90.47
2022-11-24T03:23:36.244Z,90.99
2022-11-24T03:26:13.281Z,90.72
2022-11-24T03:28:41.783Z,90.88
2022-11-24T03:31:11.118Z,90.99
2022-11-24T03:33:39.955Z,90.95
2022-11-24T03:36:09.186Z,90.49
2022-11-24T03:38:37.463Z,90.42
2022-11-24T03:41:06.001Z,90.34
2022-11-24T03:43:37.810Z,90.15
2022-11-24T03:46:09.239Z,90.62
2022-11-24T03:48:37.539Z,90.71
2022-11-24T03:51:06.145Z,90.85
2022-11-24T03:53:34.700Z,90.86
2022-11-24T03:56:04.095Z,90.68
2022-11-24T03:58:32.685Z,90.88
2022-11-24T04:01:01.316Z,90.83
2022-11-24T04:03:29.990Z,91.03
2022-11-24T04:05:58.342Z,90.95
2022-11-24T04:08:26.659Z,90.72
2022-11-24T04:10:54.986Z,91.04
2022-11-24T04:13:26.351Z,90.88
2022-11-24T04:15:55.020Z,91.10
2022-11-24T04:18:23.583Z,90.88
2022-11-24T04:20:52.774Z,90.63
2022-11-24T04:23:21.114Z,90.47
2022-11-24T04:25:49.579Z,90.52
2022-11-24T04:28:17.961Z,90.58
2022-11-24T04:30:46.329Z,90.28
2022-11-24T04:33:14.643Z,90.30
2022-11-24T04:35:43.077Z,90.44
2022-11-24T04:38:11.363Z,90.26
2022-11-24T04:40:40.017Z,90.41
2022-11-24T04:43:09.586Z,90.94
2022-11-24T04:45:38.379Z,90.85
2022-11-24T04:48:06.853Z,90.82
2022-11-24T04:50:37.022Z,90.58
2022-11-24T04:53:05.447Z,90.58
2022-11-24T04:55:33.775Z,90.35
2022-11-24T04:58:02.701Z,90.76
2022-11-24T05:00:30.996Z,90.66
2022-11-24T05:02:59.378Z,90.22
2022-11-24T05:05:27.701Z,90.17
2022-11-24T05:07:56.262Z,90.42
2022-11-24T05:10:36.940Z,90.21
2022-11-24T05:13:10.449Z,90.38
2022-11-24T05:15:39.958Z,90.37
2022-11-24T05:18:11.293Z,90.23
2022-11-24T05:20:39.701Z,89.97
2022-11-24T05:23:08.766Z,89.85
2022-11-24T05:25:37.166Z,89.97
2022-11-24T05:28:10.097Z,89.84
2022-11-24T05:30:40.216Z,90.24
2022-11-24T05:33:12.495Z,90.07
2022-11-24T05:35:41.742Z,90.07
2022-11-24T05:38:10.222Z,90.11
2022-11-24T05:40:38.764Z,89.65
2022-11-24T05:43:15.520Z,89.95
2022-11-24T05:45:44.959Z,89.64
2022-11-24T05:48:15.173Z,89.54
2022-11-24T05:50:43.600Z,89.32
2022-11-24T05:53:13.457Z,89.84
2022-11-24T05:55:42.985Z,89.44
2022-11-24T05:58:11.229Z,89.36
2022-11-24T06:00:39.358Z,89.60
2022-11-24T06:03:09.008Z,89.30
2022-11-24T06:05:37.820Z,89.14
2022-11-24T06:08:06.025Z,89.23
2022-11-24T06:10:34.261Z,89.41
2022-11-24T06:13:06.335Z,88.98
2022-11-24T06:15:37.967Z,89.10
2022-11-24T06:18:06.168Z,89.45
2022-11-24T06:20:34.699Z,89.29
2022-11-24T06:23:02.834Z,88.95
2022-11-24T06:25:31.128Z,88.97
2022-11-24T06:28:02.788Z,88.68
2022-11-24T06:30:31.114Z,88.58
2022-11-24T06:32:59.278Z,88.86
2022-11-24T06:35:27.532Z,88.61
2022-11-24T06:37:56.282Z,88.82
2022-11-24T06:40:24.748Z,89.13
2022-11-24T06:42:53.017Z,88.91
2022-11-24T06:45:21.256Z,89.05
2022-11-24T06:47:49.482Z,88.51
2022-11-24T06:50:17.717Z,88.79
2022-11-24T06:52:46.074Z,89.22
2022-11-24T06:55:14.351Z,89.00
2022-11-24T06:57:42.611Z,88.76
2022-11-24T07:00:11.317Z,88.93
2022-11-24T07:02:45.427Z,88.86
2022-11-24T07:05:14.866Z,88.73
2022-11-24T07:07:43.190Z,88.88
2022-11-24T07:10:11.425Z,88.84
2022-11-24T07:12:39.685Z,89.20
2022-11-24T07:15:20.569Z,88.63
2022-11-24T07:17:49.606Z,88.90
2022-11-24T07:20:17.881Z,88.92
2022-11-24T07:22:46.424Z,88.72
2022-11-24T07:25:14.749Z,88.29
2022-11-24T07:27:43.128Z,88.29
2022-11-24T07:30:11.517Z,88.63
2022-11-24T07:32:39.990Z,89.08
2022-11-24T07:35:08.512Z,88.41
2022-11-24T07:37:36.716Z,88.75
2022-11-24T07:40:05.465Z,88.92
2022-11-24T07:42:33.688Z,88.34
2022-11-24T07:45:02.091Z,88.38
2022-11-24T07:47:30.549Z,88.45
2022-11-24T07:49:58.789Z,88.65
2022-11-24T07:52:27.217Z,88.64
2022-11-24T07:54:55.536Z,88.61
2022-11-24T07:57:23.883Z,88.79
2022-11-24T07:59:52.608Z,88.93
2022-11-24T08:02:21.340Z,88.97
2022-11-24T08:04:49.646Z,88.37
2022-11-24T08:07:18.360Z,88.48
2022-11-24T08:09:47.133Z,88.79
2022-11-24T08:12:17.593Z,88.73
2022-11-24T08:14:46.047Z,88.49
2022-11-24T08:17:15.400Z,88.55
2022-11-24T08:19:44.658Z,88.77
2022-11-24T08:22:13.070Z,88.14
2022-11-24T08:24:46.668Z,88.33
2022-11-24T08:27:16.255Z,88.38
2022-11-24T08:29:45.264Z,88.30
2022-11-24T08:32:20.446Z,87.55
2022-11-24T08:34:52.093Z,87.87
2022-11-24T08:37:20.983Z,88.24
2022-11-24T08:39:49.475Z,88.14
2022-11-24T08:42:17.908Z,87.85
2022-11-24T08:44:46.266Z,87.97
2022-11-24T08:47:14.639Z,87.93
2022-11-24T08:49:42.968Z,87.61
2022-11-24T08:52:11.579Z,88.09
2022-11-24T08:54:40.998Z,87.53
2022-11-24T08:57:09.416Z,88.11
2022-11-24T08:59:37.837Z,87.45
2022-11-24T09:02:06.476Z,87.72
2022-11-24T09:04:35.202Z,87.54
2022-11-24T09:07:04.047Z,87.39
2022-11-24T09:09:32.395Z,87.05
2022-11-24T09:12:01.235Z,87.18
2022-11-24T09:14:29.929Z,87.57
2022-11-24T09:16:58.645Z,87.47
2022-11-24T09:19:26.937Z,87.61
2022-11-24T09:21:55.437Z,87.12
2022-11-24T09:24:24.045Z,87.63
2022-11-24T09:26:55.565Z,87.41
2022-11-24T09:29:24.034Z,86.75
2022-11-24T09:31:52.316Z,87.56
2022-11-24T09:34:20.549Z,87.32
2022-11-24T09:36:48.705Z,87.87
2022-11-24T09:39:16.841Z,87.32
2022-11-24T09:41:48.617Z,86.84
2022-11-24T09:44:46.265Z,87.01
2022-11-24T09:47:56.237Z,86.89
2022-11-24T09:50:27.955Z,86.98
2022-11-24T09:53:03.912Z,87.52
2022-11-24T09:55:42.181Z,86.99
2022-11-24T09:58:35.829Z,87.04
2022-11-24T10:01:21.002Z,87.11
2022-11-24T10:03:51.314Z,87.21
2022-11-24T10:06:24.426Z,86.45
2022-11-24T10:09:11.772Z,87.07
2022-11-24T10:12:16.843Z,87.63
2022-11-24T10:15:12.802Z,87.25
2022-11-24T10:18:02.369Z,86.97
2022-11-24T10:20:31.248Z,87.00
2022-11-24T10:23:20.420Z,87.08
2022-11-24T10:25:59.704Z,86.93
2022-11-24T10:28:38.685Z,86.62
2022-11-24T10:31:24.740Z,86.57
2022-11-24T10:33:53.034Z,86.72
2022-11-24T10:36:50.303Z,86.49
2022-11-24T10:39:21.954Z,86.72
2022-11-24T10:42:12.647Z,86.03
2022-11-24T10:44:42.491Z,86.85
2022-11-24T10:47:22.994Z,86.08
2022-11-24T10:50:28.572Z,85.98
2022-11-24T10:53:25.766Z,86.30
2022-11-24T10:55:56.846Z,86.20
2022-11-24T10:58:32.859Z,86.15
2022-11-24T11:01:13.386Z,86.00
2022-11-24T11:03:50.011Z,86.20
2022-11-24T11:06:30.271Z,86.24
2022-11-24T11:09:07.522Z,85.40
2022-11-24T11:11:38.794Z,85.96
2022-11-24T11:14:10.163Z,85.76
2022-11-24T11:17:04.864Z,85.64
2022-11-24T11:19:49.830Z,86.42
2022-11-24T11:22:28.577Z,86.12
2022-11-24T11:25:14.990Z,86.36
2022-11-24T11:27:43.258Z,86.52
2022-11-24T11:36:16.081Z,85.84
2022-11-24T11:38:46.446Z,85.48
2022-11-24T11:41:24.293Z,85.25
2022-11-24T11:44:15.310Z,85.59
2022-11-24T11:46:44.558Z,85.81
2022-11-24T11:49:14.562Z,85.34
2022-11-24T11:52:13.452Z,85.42
2022-11-24T11:54:59.782Z,85.85
2022-11-24T11:58:01.781Z,85.33
2022-11-24T12:00:35.833Z,85.82
2022-11-24T12:03:22.717Z,85.05
2022-11-24T12:06:09.246Z,85.63
2022-11-24T12:09:18.559Z,86.01
2022-11-24T12:12:04.931Z,86.08
2022-11-24T12:14:39.410Z,86.29
2022-11-24T12:17:33.032Z,86.04
2022-11-24T12:20:19.237Z,86.27
2022-11-24T12:23:00.766Z,86.03
2022-11-24T12:25:33.293Z,85.70
2022-11-24T12:28:25.486Z,85.42
2022-11-24T12:30:59.679Z,85.87
2022-11-24T12:33:36.625Z,85.87
2022-11-24T12:36:30.414Z,85.60
2022-11-24T12:39:07.020Z,85.66
2022-11-24T12:42:05.297Z,85.48
2022-11-24T12:44:42.458Z,85.20
2022-11-24T12:47:20.269Z,85.37
2022-11-24T12:49:51.683Z,85.20
2022-11-24T12:52:26.277Z,85.38
2022-11-24T12:54:56.101Z,85.24
2022-11-24T12:57:59.625Z,85.37
2022-11-24T13:00:40.286Z,85.83
2022-11-24T13:03:39.186Z,85.65
2022-11-24T13:06:21.350Z,85.10
2022-11-24T13:08:50.208Z,85.30
2022-11-24T13:11:21.129Z,85.58
2022-11-24T13:14:00.713Z,85.60
2022-11-24T13:16:41.092Z,85.50
2022-11-24T13:19:23.583Z,86.27
2022-11-24T13:22:10.928Z,85.63
2022-11-24T13:24:40.266Z,85.82
2022-11-24T13:27:17.992Z,85.99
2022-11-24T13:29:47.933Z,85.70
2022-11-24T13:32:19.428Z,85.85
2022-11-24T13:34:55.016Z,86.06
2022-11-24T13:37:33.574Z,85.93
2022-11-24T13:40:17.876Z,85.62
2022-11-24T13:42:55.154Z,85.69
2022-11-24T13:45:39.449Z,85.34
2022-11-24T13:48:20.237Z,85.16
2022-11-24T13:50:52.243Z,85.64
2022-11-24T13:53:44.107Z,85.91
2022-11-24T13:56:13.030Z,85.85
2022-11-24T13:58:43.160Z,85.88
2022-11-24T14:01:23.577Z,85.81
2022-11-24T14:06:52.335Z,86.06
2022-11-24T14:09:29.588Z,85.99
2022-11-24T14:11:59.511Z,85.66
2022-11-24T14:14:27.896Z,85.79
2022-11-24T14:17:23.140Z,85.94
2022-11-24T14:19:53.796Z,85.30
2022-11-24T14:22:41.547Z,85.36
2022-11-24T14:25:31.347Z,85.58
2022-11-24T14:28:00.627Z,85.16
2022-11-24T14:30:29.657Z,85.94
2022-11-24T14:32:59.932Z,85.78
2022-11-24T14:35:34.234Z,85.85
2022-11-24T14:38:05.335Z,85.42
2022-11-24T14:40:41.092Z,86.24
2022-11-24T14:43:26.235Z,86.12
2022-11-24T14:46:02.722Z,86.33
2022-11-24T14:48:36.414Z,86.14
2022-11-24T14:51:10.963Z,86.34
2022-11-24T14:53:47.375Z,86.80
2022-11-24T14:56:31.292Z,86.25
2022-11-24T14:59:00.093Z,85.97
2022-11-24T15:01:29.433Z,86.01
2022-11-24T15:04:26.513Z,86.16
2022-11-24T15:07:05.531Z,86.04
2022-11-24T15:09:43.913Z,85.92
2022-11-24T15:12:29.071Z,86.33
2022-11-24T15:15:23.050Z,86.47
2022-11-24T15:18:00.397Z,86.16
2022-11-24T15:20:35.391Z,86.07
2022-11-24T15:23:33.218Z,86.43
2022-11-24T15:26:01.799Z,86.76
2022-11-24T15:28:31.557Z,86.41
2022-11-24T15:31:02.360Z,86.30
2022-11-24T15:33:31.942Z,86.45
2022-11-24T15:36:00.770Z,86.56
2022-11-24T15:38:29.310Z,86.72
2022-11-24T15:41:00.437Z,86.97
2022-11-24T15:43:38.807Z,86.80
2022-11-24T15:46:08.990Z,86.32
2022-11-24T15:48:37.658Z,86.52
2022-11-24T15:51:09.002Z,86.53
2022-11-24T15:53:45.364Z,86.55
2022-11-24T15:56:26.509Z,86.98
2022-11-24T15:58:55.119Z,86.72
2022-11-24T16:01:24.801Z,86.64
2022-11-24T16:03:53.364Z,86.08
2022-11-24T16:06:25.153Z,86.27
2022-11-24T16:08:54.840Z,86.59
2022-11-24T16:11:24.047Z,86.98
2022-11-24T16:13:54.232Z,85.84
2022-11-24T16:16:24.998Z,85.15
2022-11-24T16:18:53.623Z,85.65
2022-11-24T16:21:22.000Z,86.40
2022-11-24T16:23:50.297Z,86.55
2022-11-24T16:26:19.144Z,87.02
2022-11-24T16:28:47.484Z,85.82
2022-11-24T16:31:16.481Z,86.68
2022-11-24T16:33:46.579Z,86.56
2022-11-24T16:36:15.269Z,86.51
2022-11-24T16:38:44.055Z,86.80
2022-11-24T16:41:13.161Z,86.49
2022-11-24T16:43:41.587Z,86.86
2022-11-24T16:46:21.322Z,86.59
2022-11-24T16:48:52.855Z,86.53
2022-11-24T16:51:23.177Z,86.71
2022-11-24T16:54:00.857Z,86.68
2022-11-24T16:56:30.859Z,86.57
2022-11-24T16:58:59.510Z,86.41
2022-11-24T17:01:27.986Z,87.00
2022-11-24T17:03:56.839Z,86.83
2022-11-24T17:06:27.003Z,86.39
2022-11-24T17:08:55.909Z,86.39
2022-11-24T17:11:26.150Z,86.32
2022-11-24T17:13:56.869Z,85.88
2022-11-24T17:16:26.244Z,86.57
2022-11-24T17:18:54.690Z,86.32
2022-11-24T17:21:25.680Z,86.44
2022-11-24T17:23:55.768Z,86.66
2022-11-24T17:26:25.364Z,86.64
2022-11-24T17:28:54.424Z,86.27
2022-11-24T17:31:35.725Z,86.70
2022-11-24T17:34:06.388Z,86.77
2022-11-24T17:36:35.299Z,86.52
2022-11-24T17:39:05.545Z,87.01
2022-11-24T17:41:34.695Z,86.72
2022-11-24T17:44:03.078Z,86.62
2022-11-24T17:46:31.949Z,86.73
2022-11-24T17:49:00.541Z,86.44
2022-11-24T17:51:29.133Z,86.34
2022-11-24T17:53:57.769Z,86.26
2022-11-24T17:56:27.777Z,86.55
2022-11-24T17:59:00.915Z,86.36
2022-11-24T18:01:31.617Z,85.84
2022-11-24T18:04:00.321Z,85.80
2022-11-24T18:06:29.132Z,85.85
2022-11-24T18:08:58.400Z,85.87
2022-11-24T18:11:31.872Z,86.50
2022-11-24T18:14:03.364Z,85.08
2022-11-24T18:16:34.391Z,85.94
2022-11-24T18:19:09.110Z,85.97
2022-11-24T18:21:40.180Z,85.95
2022-11-24T18:24:10.147Z,85.79
2022-11-24T18:26:39.545Z,85.86
2022-11-24T18:29:08.502Z,85.87
2022-11-24T18:31:37.724Z,85.96
2022-11-24T18:34:06.908Z,86.19
2022-11-24T18:36:36.061Z,85.97
2022-11-24T18:39:06.700Z,85.75
2022-11-24T18:41:35.464Z,86.25
2022-11-24T18:44:08.332Z,85.41
2022-11-24T18:46:37.879Z,85.41
2022-11-24T18:49:07.439Z,85.78
2022-11-24T18:51:36.281Z,85.67
2022-11-24T18:54:05.683Z,85.45
2022-11-24T18:56:34.289Z,85.48
2022-11-24T18:59:02.748Z,86.09
2022-11-24T19:01:32.382Z,85.64
2022-11-24T19:04:03.143Z,85.90
2022-11-24T19:06:34.116Z,85.88
2022-11-24T19:09:14.834Z,85.81
2022-11-24T19:11:45.760Z,85.23
2022-11-24T19:14:17.640Z,85.97
2022-11-24T19:16:48.195Z,85.87
2022-11-24T19:19:17.471Z,85.33
2022-11-24T19:21:46.064Z,86.35
2022-11-24T19:24:14.345Z,85.99
2022-11-24T19:26:42.918Z,85.99
2022-11-24T19:29:11.584Z,85.76
2022-11-24T19:31:40.373Z,85.63
2022-11-24T19:34:08.940Z,86.48
2022-11-24T19:36:37.776Z,85.52
2022-11-24T19:39:07.215Z,85.31
2022-11-24T19:41:35.745Z,85.77
2022-11-24T19:44:04.231Z,85.67
2022-11-24T19:46:33.602Z,85.52
2022-11-24T19:49:02.767Z,85.33
2022-11-24T19:51:34.259Z,85.35
2022-11-24T19:54:04.267Z,85.21
2022-11-24T19:56:35.176Z,85.99
2022-11-24T19:59:05.940Z,85.57
2022-11-24T20:01:40.289Z,85.94
2022-11-24T20:04:12.675Z,85.36
2022-11-24T20:06:43.984Z,85.75
2022-11-24T20:09:16.113Z,85.64
2022-11-24T20:11:45.578Z,85.48
2022-11-24T20:14:16.503Z,85.10
2022-11-24T20:16:47.122Z,85.56
2022-11-24T20:19:17.409Z,84.94
2022-11-24T20:21:48.030Z,85.06
2022-11-24T20:24:22.497Z,85.25
2022-11-24T20:26:54.419Z,85.56
2022-11-24T20:29:23.092Z,85.51
2022-11-24T20:31:54.511Z,85.11
2022-11-24T20:34:24.020Z,85.08
2022-11-24T20:36:55.821Z,84.63
2022-11-24T20:49:44.337Z,85.37
2022-11-24T20:52:13.081Z,85.77
2022-11-24T20:54:41.464Z,85.88
2022-11-24T20:57:10.510Z,85.66
2022-11-24T20:59:39.164Z,85.19
2022-11-24T21:02:07.605Z,85.45
2022-11-24T21:04:39.839Z,85.53
2022-11-24T21:07:08.319Z,85.81
2022-11-24T21:09:36.701Z,85.59
2022-11-24T21:12:06.069Z,86.20
2022-11-24T21:14:35.467Z,86.03
2022-11-24T21:17:03.893Z,86.05
2022-11-24T21:19:32.254Z,86.02
2022-11-24T21:22:00.765Z,85.40
2022-11-24T21:24:31.078Z,86.01
2022-11-24T21:26:59.365Z,86.11
2022-11-24T21:29:27.829Z,86.17
2022-11-24T21:31:58.070Z,85.91
2022-11-24T21:34:26.800Z,86.02
2022-11-24T21:36:55.142Z,86.20
2022-11-24T21:39:23.606Z,85.59
2022-11-24T21:41:51.972Z,85.71
2022-11-24T21:44:20.268Z,85.72
2022-11-24T21:46:54.318Z,86.05
2022-11-24T21:49:24.192Z,86.38
2022-11-24T21:51:56.003Z,85.99
2022-11-24T21:54:25.323Z,86.43
2022-11-24T21:56:54.185Z,85.98
2022-11-24T21:59:23.000Z,85.91
2022-11-24T22:01:51.864Z,85.48
2022-11-24T22:04:20.319Z,85.88
2022-11-24T22:06:48.686Z,86.06
2022-11-24T22:09:18.507Z,85.77
2022-11-24T22:11:49.511Z,85.75
2022-11-24T22:14:18.495Z,86.43
2022-11-24T22:16:50.536Z,85.74
2022-11-24T22:19:19.490Z,85.49
2022-11-24T22:21:48.112Z,85.61
2022-11-24T22:24:16.883Z,85.61
2022-11-24T22:26:45.248Z,85.76
2022-11-24T22:29:13.543Z,85.34
2022-11-24T22:31:41.950Z,86.18
2022-11-24T22:34:10.394Z,85.59
2022-11-24T22:36:38.770Z,85.88
2022-11-24T22:39:11.150Z,86.13
2022-11-24T22:41:39.554Z,85.55
2022-11-24T22:44:08.137Z,85.29
2022-11-24T22:46:36.475Z,85.66
2022-11-24T22:49:04.843Z,85.73
2022-11-24T22:51:34.983Z,86.17
2022-11-24T22:54:05.280Z,85.37
2022-11-24T22:56:34.365Z,85.55
2022-11-24T22:59:04.702Z,85.44
2022-11-24T23:01:34.196Z,85.73
2022-11-24T23:04:04.149Z,85.67
2022-11-24T23:06:33.916Z,86.06
2022-11-24T23:09:03.745Z,85.63
2022-11-24T23:11:38.191Z,86.30
2022-11-24T23:14:11.905Z,85.49
2022-11-24T23:16:40.399Z,85.54
2022-11-24T23:19:09.523Z,85.83
2022-11-24T23:21:38.895Z,86.14
2022-11-24T23:24:08.717Z,85.86
2022-11-24T23:26:40.197Z,85.97
2022-11-24T23:29:10.257Z,86.20
2022-11-24T23:31:40.360Z,85.92
2022-11-24T23:34:09.527Z,85.97
2022-11-24T23:36:38.310Z,85.67
2022-11-24T23:39:09.264Z,85.87
2022-11-24T23:41:37.998Z,85.60
2022-11-24T23:44:07.201Z,85.43
2022-11-24T23:46:35.828Z,85.57
2022-11-24T23:49:04.812Z,85.14
2022-11-24T23:51:33.612Z,85.68
2022-11-24T23:56:47.606Z,85.94
2022-11-24T23:59:17.610Z,85.85
